createdAt,value
2018-06-09T00:02:08.468Z,20.91
2018-06-09T00:04:36.464Z,20.90
2018-06-09T00:07:04.504Z,20.90
2018-06-09T00:09:32.606Z,20.88
2018-06-09T00:12:00.874Z,20.85
2018-06-09T00:14:28.960Z,20.81
2018-06-09T00:16:57.012Z,20.77
2018-06-09T00:19:25.068Z,20.72
2018-06-09T00:21:53.102Z,20.69
2018-06-09T00:24:21.149Z,20.66
2018-06-09T00:26:49.224Z,20.64
2018-06-09T00:29:17.260Z,20.63
2018-06-09T00:31:45.300Z,20.62
2018-06-09T00:34:13.363Z,20.58
2018-06-09T00:36:41.394Z,20.55
2018-06-09T00:39:09.437Z,20.53
2018-06-09T00:41:37.493Z,20.46
2018-06-09T00:44:05.547Z,20.44
2018-06-09T00:46:33.623Z,20.39
2018-06-09T00:49:01.655Z,20.35
2018-06-09T00:51:30.860Z,20.31
2018-06-09T00:54:00.943Z,20.25
2018-06-09T00:56:40.363Z,20.19
2018-06-09T00:59:08.825Z,20.16
2018-06-09T01:01:36.852Z,20.16
2018-06-09T01:04:04.913Z,20.12
2018-06-09T01:06:32.943Z,20.00
2018-06-09T01:09:01.284Z,19.93
2018-06-09T01:11:29.308Z,19.87
2018-06-09T01:13:57.354Z,19.83
2018-06-09T01:16:25.420Z,19.80
2018-06-09T01:18:53.504Z,19.77
2018-06-09T01:21:21.572Z,19.75
2018-06-09T01:23:49.601Z,19.75
2018-06-09T01:26:17.635Z,19.70
2018-06-09T01:28:45.767Z,19.66
2018-06-09T01:31:13.808Z,19.62
2018-06-09T01:33:41.885Z,19.58
2018-06-09T01:36:09.903Z,19.57
2018-06-09T01:38:37.935Z,19.54
2018-06-09T01:41:05.987Z,19.49
2018-06-09T01:43:34.128Z,19.45
2018-06-09T01:46:02.196Z,19.39
2018-06-09T01:48:30.227Z,19.38
2018-06-09T01:50:58.326Z,19.40
2018-06-09T01:53:26.366Z,19.39
2018-06-09T01:55:54.403Z,19.39
2018-06-09T01:58:22.443Z,19.39
2018-06-09T02:00:50.488Z,19.38
2018-06-09T02:03:18.828Z,19.38
2018-06-09T02:05:46.853Z,19.35
2018-06-09T02:08:14.892Z,19.34
2018-06-09T02:10:42.947Z,19.30
2018-06-09T02:13:11.023Z,19.24
2018-06-09T02:15:39.514Z,19.17
2018-06-09T02:18:07.640Z,19.21
2018-06-09T02:20:35.930Z,19.19
2018-06-09T02:23:04.153Z,19.19
2018-06-09T02:25:32.810Z,19.21
2018-06-09T02:28:00.883Z,19.18
2018-06-09T02:30:28.924Z,19.15
2018-06-09T02:32:56.965Z,19.14
2018-06-09T02:35:25.017Z,19.13
2018-06-09T02:37:53.059Z,19.11
2018-06-09T02:40:21.120Z,19.09
2018-06-09T02:42:49.172Z,19.06
2018-06-09T02:45:17.230Z,19.06
2018-06-09T02:47:45.318Z,19.05
2018-06-09T02:50:13.363Z,19.02
2018-06-09T02:52:41.407Z,19.02
2018-06-09T02:55:09.452Z,18.98
2018-06-09T02:57:37.710Z,18.97
2018-06-09T03:00:05.764Z,18.95
2018-06-09T03:02:33.795Z,18.97
2018-06-09T03:05:02.004Z,18.98
2018-06-09T03:07:30.028Z,18.99
2018-06-09T03:09:58.055Z,19.00
2018-06-09T03:12:26.108Z,18.98
2018-06-09T03:14:54.147Z,18.96
2018-06-09T03:17:22.549Z,18.97
2018-06-09T03:19:50.579Z,18.99
2018-06-09T03:22:18.623Z,19.00
2018-06-09T03:24:46.647Z,19.00
2018-06-09T03:27:14.696Z,18.98
2018-06-09T03:29:42.727Z,18.97
2018-06-09T03:32:10.775Z,18.96
2018-06-09T03:34:38.815Z,18.96
2018-06-09T03:37:06.848Z,18.97
2018-06-09T03:39:34.897Z,18.97
2018-06-09T03:42:03.187Z,18.97
2018-06-09T03:44:31.216Z,18.97
2018-06-09T03:46:59.243Z,19.00
2018-06-09T03:49:27.576Z,19.00
2018-06-09T03:51:55.787Z,19.00
2018-06-09T03:54:23.811Z,19.00
2018-06-09T03:56:51.847Z,19.01
2018-06-09T03:59:20.495Z,19.02
2018-06-09T04:01:48.516Z,19.03
2018-06-09T04:04:16.564Z,19.04
2018-06-09T04:06:44.616Z,19.06
2018-06-09T04:09:12.664Z,19.08
2018-06-09T04:11:40.970Z,19.12
2018-06-09T04:14:08.999Z,19.15
2018-06-09T04:16:37.041Z,19.18
2018-06-09T04:19:05.103Z,19.18
2018-06-09T04:21:33.282Z,19.23
2018-06-09T04:24:01.457Z,19.23
2018-06-09T04:26:29.697Z,19.25
2018-06-09T04:28:58.091Z,19.28
2018-06-09T04:31:26.230Z,19.32
2018-06-09T04:33:54.296Z,19.38
2018-06-09T04:36:22.436Z,19.44
2018-06-09T04:38:50.480Z,19.46
2018-06-09T04:41:18.511Z,19.46
2018-06-09T04:43:46.568Z,19.51
2018-06-09T04:46:14.611Z,19.55
2018-06-09T04:48:42.635Z,19.62
2018-06-09T04:51:11.048Z,19.69
2018-06-09T04:53:39.067Z,19.76
2018-06-09T04:58:41.592Z,19.84
2018-06-09T05:01:09.618Z,19.85
2018-06-09T05:03:37.661Z,19.90
2018-06-09T05:06:05.706Z,19.94
2018-06-09T05:08:33.764Z,19.98
2018-06-09T05:11:01.824Z,19.98
2018-06-09T05:13:29.871Z,20.15
2018-06-09T05:15:58.046Z,20.20
2018-06-09T05:18:26.228Z,20.27
2018-06-09T05:20:54.212Z,20.45
2018-06-09T05:23:22.251Z,20.73
2018-06-09T05:25:50.295Z,20.90
2018-06-09T05:28:18.318Z,20.87
2018-06-09T05:30:46.472Z,21.12
2018-06-09T05:33:14.520Z,21.81
2018-06-09T05:35:42.545Z,22.57
2018-06-09T05:38:10.604Z,23.25
2018-06-09T05:40:38.637Z,23.53
2018-06-09T05:43:06.687Z,24.51
2018-06-09T05:45:34.723Z,25.31
2018-06-09T05:48:02.759Z,26.17
2018-06-09T05:50:30.803Z,27.03
2018-06-09T05:52:58.856Z,27.72
2018-06-09T05:55:26.879Z,28.06
2018-06-09T05:57:55.080Z,28.61
2018-06-09T06:00:23.131Z,29.08
2018-06-09T06:02:51.203Z,28.92
2018-06-09T06:05:19.255Z,28.77
2018-06-09T06:07:47.268Z,28.47
2018-06-09T06:10:15.315Z,28.35
2018-06-09T06:12:43.347Z,28.23
2018-06-09T06:15:11.397Z,27.96
2018-06-09T06:17:39.427Z,27.79
2018-06-09T06:20:07.460Z,27.66
2018-06-09T06:22:35.503Z,27.50
2018-06-09T06:25:03.535Z,27.42
2018-06-09T06:27:31.548Z,27.24
2018-06-09T06:29:59.733Z,27.25
2018-06-09T06:32:27.744Z,27.26
2018-06-09T06:34:55.792Z,27.16
2018-06-09T06:37:24.103Z,27.15
2018-06-09T06:39:52.167Z,27.35
2018-06-09T06:42:20.192Z,27.34
2018-06-09T06:47:27.767Z,27.24
2018-06-09T06:49:55.824Z,27.15
2018-06-09T06:52:23.848Z,27.56
2018-06-09T06:54:51.922Z,28.03
2018-06-09T06:57:19.951Z,28.79
2018-06-09T06:59:48.005Z,29.12
2018-06-09T07:02:16.044Z,29.79
2018-06-09T07:04:44.091Z,29.75
2018-06-09T07:07:12.144Z,29.12
2018-06-09T07:09:40.247Z,28.32
2018-06-09T07:12:08.299Z,27.95
2018-06-09T07:14:36.348Z,28.05
2018-06-09T07:17:04.389Z,27.95
2018-06-09T07:19:32.431Z,27.20
2018-06-09T07:22:00.468Z,27.17
2018-06-09T07:24:28.518Z,26.89
2018-06-09T07:26:56.624Z,26.73
2018-06-09T07:29:24.691Z,26.60
2018-06-09T07:31:52.747Z,26.49
2018-06-09T07:34:20.856Z,26.29
2018-06-09T07:36:50.518Z,26.18
2018-06-09T07:39:18.915Z,26.10
2018-06-09T07:41:47.180Z,26.01
2018-06-09T07:44:15.367Z,25.87
2018-06-09T07:46:45.561Z,25.79
2018-06-09T07:49:13.629Z,25.83
2018-06-09T07:51:41.937Z,25.29
2018-06-09T07:54:09.996Z,25.67
2018-06-09T07:56:38.296Z,25.57
2018-06-09T07:59:06.355Z,25.65
2018-06-09T08:01:34.902Z,25.81
2018-06-09T08:04:02.946Z,25.95
2018-06-09T08:06:30.999Z,25.70
2018-06-09T08:08:59.399Z,25.82
2018-06-09T08:11:28.123Z,26.43
2018-06-09T08:13:56.726Z,27.08
2018-06-09T08:16:25.726Z,27.90
2018-06-09T08:18:53.883Z,27.97
2018-06-09T08:21:22.459Z,28.48
2018-06-09T08:23:50.775Z,29.07
2018-06-09T08:26:18.828Z,29.58
2018-06-09T08:28:47.214Z,29.96
2018-06-09T08:31:19.076Z,30.28
2018-06-09T08:33:49.233Z,30.19
2018-06-09T08:36:17.923Z,30.65
2018-06-09T08:38:46.975Z,30.88
2018-06-09T08:41:15.028Z,30.85
2018-06-09T08:43:43.070Z,30.84
2018-06-09T08:46:11.128Z,30.75
2018-06-09T08:48:39.394Z,31.17
2018-06-09T08:51:07.429Z,31.20
2018-06-09T08:53:35.592Z,30.97
2018-06-09T08:56:03.683Z,30.18
2018-06-09T08:58:31.747Z,30.08
2018-06-09T09:00:59.803Z,30.08
2018-06-09T09:03:27.835Z,29.80
2018-06-09T09:05:55.868Z,29.84
2018-06-09T09:08:23.920Z,29.98
2018-06-09T09:10:51.964Z,30.14
2018-06-09T09:13:20.008Z,30.31
2018-06-09T09:15:48.029Z,30.28
2018-06-09T09:18:16.075Z,29.85
2018-06-09T09:20:44.513Z,29.68
2018-06-09T09:23:12.540Z,29.97
2018-06-09T09:25:40.579Z,30.14
2018-06-09T09:28:08.743Z,30.25
2018-06-09T09:30:36.899Z,29.67
2018-06-09T09:33:05.256Z,29.77
2018-06-09T09:35:33.320Z,29.84
2018-06-09T09:38:01.396Z,30.44
2018-06-09T09:40:29.509Z,30.85
2018-06-09T09:42:58.239Z,30.98
2018-06-09T09:45:26.357Z,31.01
2018-06-09T09:47:54.435Z,30.96
2018-06-09T09:50:23.052Z,31.19
2018-06-09T09:52:51.916Z,31.61
2018-06-09T09:55:20.433Z,31.46
2018-06-09T09:57:58.272Z,31.37
2018-06-09T10:00:39.733Z,31.86
2018-06-09T10:03:11.994Z,32.33
2018-06-09T10:05:40.111Z,32.47
2018-06-09T10:08:08.160Z,32.22
2018-06-09T10:10:36.831Z,32.14
2018-06-09T10:13:06.487Z,31.73
2018-06-09T10:15:34.758Z,31.48
2018-06-09T10:18:02.943Z,31.25
2018-06-09T10:20:31.288Z,30.87
2018-06-09T10:23:00.285Z,30.79
2018-06-09T10:25:28.876Z,30.89
2018-06-09T10:27:57.003Z,30.59
2018-06-09T10:30:25.127Z,30.45
2018-06-09T10:32:53.228Z,30.32
2018-06-09T10:35:21.310Z,30.19
2018-06-09T10:37:49.331Z,30.27
2018-06-09T10:40:17.374Z,30.39
2018-06-09T10:42:45.502Z,30.48
2018-06-09T10:45:13.584Z,30.20
2018-06-09T10:47:41.739Z,30.17
2018-06-09T10:50:09.954Z,30.14
2018-06-09T10:52:37.999Z,30.07
2018-06-09T10:55:06.031Z,29.88
2018-06-09T10:57:34.111Z,29.97
2018-06-09T11:00:02.243Z,29.92
2018-06-09T11:02:30.279Z,29.87
2018-06-09T11:04:58.298Z,29.78
2018-06-09T11:07:26.378Z,29.85
2018-06-09T11:09:54.456Z,29.83
2018-06-09T11:12:22.504Z,29.32
2018-06-09T11:14:50.547Z,29.36
2018-06-09T11:17:18.580Z,29.44
2018-06-09T11:19:46.627Z,29.31
2018-06-09T11:22:14.671Z,29.44
2018-06-09T11:24:42.758Z,29.57
2018-06-09T11:27:10.907Z,29.65
2018-06-09T11:29:39.020Z,29.61
2018-06-09T11:32:07.302Z,29.56
2018-06-09T11:34:35.491Z,29.50
2018-06-09T11:37:03.723Z,29.60
2018-06-09T11:39:32.043Z,29.53
2018-06-09T11:42:00.176Z,29.49
2018-06-09T11:44:28.555Z,29.60
2018-06-09T11:46:56.919Z,29.64
2018-06-09T11:49:25.190Z,29.68
2018-06-09T11:51:53.247Z,29.44
2018-06-09T11:54:21.304Z,29.09
2018-06-09T11:56:49.371Z,29.17
2018-06-09T11:59:17.424Z,28.94
2018-06-09T12:01:45.533Z,29.03
2018-06-09T12:04:13.552Z,29.22
2018-06-09T12:06:41.691Z,29.36
2018-06-09T12:09:09.766Z,29.43
2018-06-09T12:11:37.808Z,29.47
2018-06-09T12:14:05.914Z,29.49
2018-06-09T12:16:33.951Z,29.42
2018-06-09T12:19:02.084Z,29.50
2018-06-09T12:21:30.282Z,29.30
2018-06-09T12:23:58.377Z,29.45
2018-06-09T12:26:27.443Z,29.39
2018-06-09T12:28:55.476Z,29.57
2018-06-09T12:31:23.512Z,29.50
2018-06-09T12:33:51.555Z,29.42
2018-06-09T12:36:19.705Z,29.36
2018-06-09T12:38:47.759Z,29.31
2018-06-09T12:41:15.788Z,29.50
2018-06-09T12:43:43.839Z,29.38
2018-06-09T12:46:11.880Z,29.18
2018-06-09T12:48:40.016Z,29.44
2018-06-09T12:51:08.084Z,29.72
2018-06-09T12:53:36.227Z,29.57
2018-06-09T12:56:04.307Z,29.54
2018-06-09T12:58:32.347Z,29.69
2018-06-09T13:01:00.419Z,29.83
2018-06-09T13:03:28.491Z,29.93
2018-06-09T13:05:57.205Z,30.00
2018-06-09T13:08:25.342Z,30.03
2018-06-09T13:10:53.398Z,29.91
2018-06-09T13:13:22.542Z,29.75
2018-06-09T13:15:50.924Z,29.45
2018-06-09T13:18:18.986Z,29.49
2018-06-09T13:20:47.028Z,29.73
2018-06-09T13:23:15.063Z,29.65
2018-06-09T13:25:43.481Z,29.73
2018-06-09T13:28:11.529Z,29.69
2018-06-09T13:30:39.757Z,29.79
2018-06-09T13:33:07.848Z,29.91
2018-06-09T13:35:36.159Z,30.02
2018-06-09T13:38:04.757Z,30.17
2018-06-09T13:40:33.456Z,30.32
2018-06-09T13:43:03.098Z,30.19
2018-06-09T13:45:31.363Z,30.09
2018-06-09T13:47:59.499Z,30.16
2018-06-09T13:50:27.755Z,30.27
2018-06-09T13:52:55.919Z,30.30
2018-06-09T13:55:23.932Z,30.47
2018-06-09T13:57:52.073Z,30.40
2018-06-09T14:00:20.165Z,30.49
2018-06-09T14:02:48.179Z,30.60
2018-06-09T14:05:16.251Z,30.44
2018-06-09T14:07:44.448Z,30.48
2018-06-09T14:10:12.667Z,30.64
2018-06-09T14:12:40.704Z,30.57
2018-06-09T14:15:09.160Z,30.67
2018-06-09T14:17:37.259Z,30.71
2018-06-09T14:20:05.267Z,30.34
2018-06-09T14:22:33.383Z,30.44
2018-06-09T14:25:01.581Z,30.48
2018-06-09T14:27:29.601Z,30.55
2018-06-09T14:29:57.653Z,30.66
2018-06-09T14:32:25.693Z,30.71
2018-06-09T14:34:53.965Z,30.67
2018-06-09T14:37:22.028Z,30.76
2018-06-09T14:39:50.427Z,30.85
2018-06-09T14:42:18.474Z,30.94
2018-06-09T14:44:46.536Z,30.96
2018-06-09T14:47:14.583Z,30.99
2018-06-09T14:49:42.611Z,31.01
2018-06-09T14:52:10.664Z,30.97
2018-06-09T14:54:38.691Z,31.01
2018-06-09T14:57:06.707Z,31.03
2018-06-09T14:59:34.790Z,31.08
2018-06-09T15:02:02.841Z,31.11
2018-06-09T15:04:30.887Z,31.17
2018-06-09T15:06:58.937Z,30.93
2018-06-09T15:09:26.980Z,30.98
2018-06-09T15:11:55.028Z,31.09
2018-06-09T15:14:23.175Z,31.08
2018-06-09T15:16:51.219Z,30.92
2018-06-09T15:19:19.241Z,30.93
2018-06-09T15:21:47.271Z,31.05
2018-06-09T15:24:15.320Z,31.16
2018-06-09T15:26:43.360Z,31.21
2018-06-09T15:29:11.416Z,31.31
2018-06-09T15:31:39.664Z,31.32
2018-06-09T15:34:08.269Z,31.37
2018-06-09T15:36:36.790Z,31.37
2018-06-09T15:39:07.226Z,31.44
2018-06-09T15:41:35.894Z,31.53
2018-06-09T15:44:04.777Z,31.57
2018-06-09T15:46:33.066Z,31.62
2018-06-09T15:49:01.880Z,31.63
2018-06-09T15:51:30.859Z,31.60
2018-06-09T15:54:00.418Z,31.52
2018-06-09T15:56:29.849Z,31.54
2018-06-09T15:58:59.652Z,31.48
2018-06-09T16:01:29.589Z,31.37
2018-06-09T16:03:59.229Z,31.53
2018-06-09T16:06:28.295Z,31.54
2018-06-09T16:08:57.259Z,31.57
2018-06-09T16:11:25.696Z,31.72
2018-06-09T16:13:53.791Z,31.63
2018-06-09T16:16:21.948Z,31.60
2018-06-09T16:18:49.972Z,31.69
2018-06-09T16:21:17.991Z,31.70
2018-06-09T16:23:46.028Z,31.76
2018-06-09T16:26:14.055Z,31.91
2018-06-09T16:28:42.107Z,31.86
2018-06-09T16:31:10.196Z,31.64
2018-06-09T16:33:38.324Z,31.63
2018-06-09T16:36:06.444Z,31.68
2018-06-09T16:38:34.521Z,31.61
2018-06-09T16:41:03.384Z,31.66
2018-06-09T16:43:32.102Z,31.69
2018-06-09T16:46:01.968Z,31.65
2018-06-09T16:48:32.016Z,31.73
2018-06-09T16:51:02.713Z,31.75
2018-06-09T16:53:32.305Z,31.82
2018-06-09T16:56:01.951Z,31.88
2018-06-09T16:58:31.455Z,31.95
2018-06-09T17:01:01.490Z,32.00
2018-06-09T17:03:31.263Z,32.00
2018-06-09T17:06:01.111Z,32.00
2018-06-09T17:08:30.807Z,31.99
2018-06-09T17:10:59.971Z,32.03
2018-06-09T17:13:30.582Z,32.04
2018-06-09T17:16:00.522Z,32.02
2018-06-09T17:18:29.863Z,31.99
2018-06-09T17:20:59.043Z,32.00
2018-06-09T17:23:28.411Z,31.96
2018-06-09T17:25:57.242Z,31.93
2018-06-09T17:28:25.877Z,31.82
2018-06-09T17:30:54.025Z,31.68
2018-06-09T17:33:22.071Z,31.58
2018-06-09T17:35:50.108Z,31.45
2018-06-09T17:38:18.163Z,31.40
2018-06-09T17:40:46.259Z,31.30
2018-06-09T17:43:14.302Z,31.19
2018-06-09T17:45:42.408Z,31.14
2018-06-09T17:48:10.543Z,31.04
2018-06-09T17:50:38.856Z,31.03
2018-06-09T17:53:06.903Z,31.01
2018-06-09T17:55:35.275Z,31.00
2018-06-09T17:58:05.527Z,30.97
2018-06-09T18:00:33.575Z,30.93
2018-06-09T18:03:01.597Z,30.81
2018-06-09T18:05:29.632Z,30.74
2018-06-09T18:07:57.961Z,30.68
2018-06-09T18:10:25.990Z,30.61
2018-06-09T18:12:54.219Z,30.56
2018-06-09T18:15:22.247Z,30.55
2018-06-09T18:17:50.481Z,30.54
2018-06-09T18:20:18.991Z,30.52
2018-06-09T18:22:47.909Z,30.52
2018-06-09T18:25:15.963Z,30.47
2018-06-09T18:27:44.575Z,30.45
2018-06-09T18:30:12.655Z,30.36
2018-06-09T18:32:40.692Z,30.30
2018-06-09T18:35:08.719Z,30.23
2018-06-09T18:37:36.787Z,30.14
2018-06-09T18:40:04.891Z,30.07
2018-06-09T18:42:33.311Z,30.06
2018-06-09T18:45:01.399Z,30.04
2018-06-09T18:47:29.436Z,30.02
2018-06-09T18:49:57.510Z,30.02
2018-06-09T18:52:25.543Z,30.00
2018-06-09T18:54:53.555Z,30.00
2018-06-09T18:57:21.656Z,29.97
2018-06-09T18:59:49.724Z,29.94
2018-06-09T19:02:17.767Z,29.88
2018-06-09T19:04:45.818Z,29.83
2018-06-09T19:07:13.899Z,29.77
2018-06-09T19:09:41.924Z,29.72
2018-06-09T19:12:10.060Z,29.63
2018-06-09T19:14:38.172Z,29.56
2018-06-09T19:17:06.198Z,29.48
2018-06-09T19:19:34.244Z,29.41
2018-06-09T19:22:02.282Z,29.31
2018-06-09T19:24:30.587Z,29.24
2018-06-09T19:26:59.501Z,29.18
2018-06-09T19:29:27.946Z,29.10
2018-06-09T19:31:56.114Z,28.97
2018-06-09T19:34:24.560Z,28.93
2018-06-09T19:36:52.586Z,28.87
2018-06-09T19:39:21.208Z,28.78
2018-06-09T19:41:49.260Z,28.70
2018-06-09T19:44:17.532Z,28.60
2018-06-09T19:46:45.647Z,28.51
2018-06-09T19:49:13.684Z,28.42
2018-06-09T19:51:41.768Z,28.31
2018-06-09T19:54:09.824Z,28.16
2018-06-09T19:56:37.999Z,28.09
2018-06-09T19:59:06.258Z,28.02
2018-06-09T20:01:34.631Z,27.90
2018-06-09T20:04:03.035Z,27.80
2018-06-09T20:06:31.448Z,27.57
2018-06-09T20:08:59.851Z,27.67
2018-06-09T20:11:28.126Z,27.59
2018-06-09T20:13:56.564Z,27.50
2018-06-09T20:16:24.883Z,27.43
2018-06-09T20:18:52.939Z,27.34
2018-06-09T20:21:21.062Z,27.22
2018-06-09T20:23:49.454Z,27.10
2018-06-09T20:26:17.608Z,26.76
2018-06-09T20:28:45.893Z,26.75
2018-06-09T20:31:14.075Z,26.58
2018-06-09T20:33:42.316Z,26.44
2018-06-09T20:36:10.468Z,26.30
2018-06-09T20:38:38.693Z,26.25
2018-06-09T20:41:06.743Z,26.25
2018-06-09T20:43:35.175Z,26.22
2018-06-09T20:46:04.404Z,26.14
2018-06-09T20:48:32.948Z,26.04
2018-06-09T20:51:02.452Z,26.02
2018-06-09T20:53:31.349Z,26.00
2018-06-09T20:56:00.621Z,25.97
2018-06-09T20:58:43.510Z,25.94
2018-06-09T21:01:12.343Z,25.90
2018-06-09T21:03:40.591Z,25.87
2018-06-09T21:06:09.325Z,25.87
2018-06-09T21:08:37.763Z,25.84
2018-06-09T21:11:08.536Z,25.80
2018-06-09T21:13:37.514Z,25.75
2018-06-09T21:16:05.954Z,25.73
2018-06-09T21:18:34.242Z,25.71
2018-06-09T21:21:02.558Z,25.68
2018-06-09T21:23:33.417Z,25.69
2018-06-09T21:26:02.343Z,25.69
2018-06-09T21:28:41.823Z,25.68
2018-06-09T21:31:15.524Z,25.60
2018-06-09T21:34:00.622Z,25.58
2018-06-09T21:36:30.073Z,25.52
2018-06-09T21:39:00.143Z,25.50
2018-06-09T21:41:33.980Z,25.46
2018-06-09T21:44:12.254Z,25.44
2018-06-09T21:46:45.760Z,25.39
2018-06-09T21:49:14.107Z,25.29
2018-06-09T21:51:42.147Z,25.22
2018-06-09T21:54:10.185Z,25.09
2018-06-09T21:56:38.384Z,25.04
2018-06-09T21:59:06.807Z,24.95
2018-06-09T22:01:38.240Z,24.91
2018-06-09T22:04:06.875Z,24.90
2018-06-09T22:06:35.203Z,24.88
2018-06-09T22:09:04.692Z,24.87
2018-06-09T22:11:34.822Z,24.83
2018-06-09T22:14:03.013Z,24.80
2018-06-09T22:16:31.716Z,24.77
2018-06-09T22:18:59.955Z,24.72
2018-06-09T22:21:28.596Z,24.68
2018-06-09T22:23:56.807Z,24.62
2018-06-09T22:26:25.208Z,24.60
2018-06-09T22:28:53.632Z,24.53
2018-06-09T22:31:21.700Z,24.49
2018-06-09T22:33:49.757Z,24.45
2018-06-09T22:36:17.923Z,24.41
2018-06-09T22:38:46.000Z,24.35
2018-06-09T22:41:15.017Z,24.33
2018-06-09T22:43:43.072Z,24.23
2018-06-09T22:46:11.159Z,24.19
2018-06-09T22:48:39.268Z,24.13
2018-06-09T22:51:07.582Z,24.06
2018-06-09T22:53:35.775Z,24.02
2018-06-09T22:56:04.361Z,23.97
2018-06-09T22:58:33.670Z,23.96
2018-06-09T23:01:02.067Z,23.92
2018-06-09T23:03:30.616Z,23.87
2018-06-09T23:05:58.773Z,23.82
2018-06-09T23:08:27.009Z,23.78
2018-06-09T23:10:55.268Z,23.73
2018-06-09T23:13:23.564Z,23.69
2018-06-09T23:15:51.730Z,23.67
2018-06-09T23:18:19.777Z,23.65
2018-06-09T23:20:47.843Z,23.62
2018-06-09T23:23:15.903Z,23.59
2018-06-09T23:25:43.947Z,23.56
2018-06-09T23:28:12.032Z,23.54
2018-06-09T23:30:40.106Z,23.51
2018-06-09T23:33:08.276Z,23.51
2018-06-09T23:35:36.648Z,23.48
2018-06-09T23:38:04.828Z,23.45
2018-06-09T23:40:33.133Z,23.44
2018-06-09T23:43:01.531Z,23.40
2018-06-09T23:45:30.254Z,23.38
2018-06-09T23:47:58.633Z,23.37
2018-06-09T23:50:27.039Z,23.34
2018-06-09T23:52:55.373Z,23.35
2018-06-09T23:55:23.629Z,23.34
2018-06-09T23:57:51.734Z,23.34
